Time;durP1;ratioP1;P1;durP2;ratioP2;P2;SDS_P1;SDS_P2;PMS_P1;PMS_P2;Temp;Humidity;BMP_temperature;BMP_pressure;BME280_temperature;BME280_humidity;BME280_pressure;Samples;Min_cycle;Max_cycle;Signal;HPM_P1;HPM_P2
2022/11/07 00:00:07;;;;;;;;;;;;;;;10.87;71.95;98173.84;7393463;19;19927;-76
2022/11/07 00:02:36;;;;;;;;;;;;;;;10.93;72.53;98177.69;7392774;19;19922;-76
2022/11/07 00:05:03;;;;;;;;;;;;;;;10.92;72.44;98184.78;7393202;19;20247;-76
2022/11/07 00:07:29;;;;;;;;;;;;;;;11.10;71.72;98187.28;7394718;19;19927;-77
2022/11/07 00:09:56;;;;;;;;;;;;;;;11.06;72.19;98193.91;7391578;19;20271;-77
2022/11/07 00:12:23;;;;;;;;;;;;;;;11.35;71.73;98182.84;7388181;19;20933;-77
2022/11/07 00:14:49;;;;;;;;;;;;;;;11.34;71.96;98190.97;7389224;19;19923;-76
2022/11/07 00:17:17;;;;;;;;;;;;;;;11.15;72.33;98206.16;7395034;19;19922;-76
2022/11/07 00:19:43;;;;;;;;;;;;;;;11.13;72.28;98210.78;7393627;19;19926;-76
2022/11/07 00:22:10;;;;;;;;;;;;;;;11.02;72.70;98211.09;7391462;19;19927;-76
2022/11/07 00:24:37;;;;;;;;;;;;;;;11.18;72.09;98212.97;7393765;19;19952;-76
2022/11/07 00:27:03;;;;;;;;;;;;;;;11.01;72.02;98208.66;7392670;19;19915;-76
2022/11/07 00:29:30;;;;;;;;;;;;;;;11.02;72.06;98212.94;7391641;19;19936;-77
2022/11/07 00:31:58;;;;;;;;;;;;;;;10.96;73.12;98217.06;7389227;19;19951;-77
2022/11/07 00:34:25;;;;;;;;;;;;;;;10.98;72.75;98221.22;7389504;19;19925;-76
2022/11/07 00:36:51;;;;;;;;;;;;;;;11.04;72.71;98216.25;7391632;19;19923;-76
2022/11/07 00:39:18;;;;;;;;;;;;;;;11.07;72.70;98227.34;7393027;19;19911;-76
2022/11/07 00:41:48;;;;;;;;;;;;;;;11.20;72.31;98229.50;7392394;19;19914;-77
2022/11/07 00:44:15;;;;;;;;;;;;;;;11.27;72.56;98227.03;7390845;19;19918;-77
2022/11/07 00:46:41;;;;;;;;;;;;;;;11.27;72.83;98238.47;7391666;19;20021;-76
2022/11/07 00:49:08;;;;;;;;;;;;;;;11.22;72.94;98240.78;7391547;19;19918;-76
2022/11/07 00:51:34;;;;;;;;;;;;;;;11.30;72.77;98243.44;7390587;19;19915;-77
2022/11/07 00:54:02;;;;;;;;;;;;;;;11.36;73.10;98240.13;7392324;19;19919;-77
2022/11/07 00:56:28;;;;;;;;;;;;;;;11.49;72.84;98239.63;7393035;19;19919;-77
2022/11/07 00:58:55;;;;;;;;;;;;;;;11.48;72.84;98237.16;7389722;19;19915;-77
2022/11/07 01:01:23;;;;;;;;;;;;;;;11.58;72.66;98241.28;7389267;19;20280;-76
2022/11/07 01:06:36;;;;;;;;;;;;;;;11.67;72.58;98236.00;7385662;19;20370;-77
2022/11/07 01:09:04;;;;;;;;;;;;;;;11.67;72.41;98243.97;7390128;19;19923;-76
2022/11/07 01:11:30;;;;;;;;;;;;;;;11.51;73.01;98245.63;7389674;19;19933;-76
2022/11/07 01:13:58;;;;;;;;;;;;;;;11.42;73.20;98239.47;7386235;19;19933;-76
2022/11/07 01:16:26;;;;;;;;;;;;;;;11.29;73.41;98244.41;7387653;19;19930;-76
2022/11/07 01:18:52;;;;;;;;;;;;;;;11.05;74.17;98231.13;7388858;19;19915;-76
2022/11/07 01:21:19;;;;;;;;;;;;;;;10.86;74.26;98238.38;7389161;19;19926;-76
2022/11/07 01:23:46;;;;;;;;;;;;;;;10.72;74.37;98228.41;7388785;19;19922;-76
2022/11/07 01:26:12;;;;;;;;;;;;;;;10.61;75.00;98236.63;7389058;19;19929;-77
2022/11/07 01:28:39;;;;;;;;;;;;;;;10.53;75.07;98235.63;7391274;19;19917;-77
2022/11/07 01:31:07;;;;;;;;;;;;;;;10.48;75.21;98235.25;7387497;19;19926;-76
2022/11/07 01:33:34;;;;;;;;;;;;;;;10.42;75.77;98233.22;7389394;19;19923;-76
2022/11/07 01:36:01;;;;;;;;;;;;;;;10.37;75.62;98239.97;7389653;19;20355;-77
2022/11/07 01:38:31;;;;;;;;;;;;;;;10.32;75.56;98243.09;7389913;19;19921;-76
2022/11/07 01:43:43;;;;;;;;;;;;;;;10.25;76.22;98245.50;7388715;19;19944;-77
2022/11/07 01:46:10;;;;;;;;;;;;;;;10.24;76.43;98243.00;7390727;19;19915;-76
2022/11/07 01:48:36;;;;;;;;;;;;;;;10.25;76.59;98242.03;7390763;19;19944;-76
2022/11/07 01:51:03;;;;;;;;;;;;;;;10.28;76.50;98237.28;7384568;19;19922;-77
2022/11/07 01:53:30;;;;;;;;;;;;;;;10.29;76.35;98238.13;7388954;19;19943;-76
2022/11/07 01:55:56;;;;;;;;;;;;;;;10.23;76.73;98241.38;7386669;19;19926;-76
2022/11/07 01:58:23;;;;;;;;;;;;;;;10.25;76.67;98242.03;7385605;19;19910;-76
2022/11/07 02:00:49;;;;;;;;;;;;;;;10.30;77.04;98245.09;7389759;19;19914;-77
2022/11/07 02:03:16;;;;;;;;;;;;;;;10.32;76.74;98237.81;7390805;19;19922;-77
2022/11/07 02:05:44;;;;;;;;;;;;;;;10.36;76.81;98247.09;7387946;19;19910;-77
2022/11/07 02:08:11;;;;;;;;;;;;;;;10.43;76.68;98253.41;7388258;19;20351;-77
2022/11/07 02:10:38;;;;;;;;;;;;;;;10.42;76.75;98249.09;7389917;19;20270;-77
2022/11/07 02:13:05;;;;;;;;;;;;;;;10.58;76.38;98247.50;7385036;19;19919;-77
2022/11/07 02:15:32;;;;;;;;;;;;;;;10.76;76.11;98242.97;7385861;19;19911;-76
2022/11/07 02:17:59;;;;;;;;;;;;;;;10.92;75.42;98237.72;7385108;19;20216;-76
2022/11/07 02:20:25;;;;;;;;;;;;;;;10.99;75.35;98244.03;7389340;19;20347;-77
2022/11/07 02:22:55;;;;;;;;;;;;;;;11.07;75.19;98239.75;7385811;19;19923;-77
2022/11/07 02:25:22;;;;;;;;;;;;;;;11.20;74.77;98240.94;7387685;19;19918;-77
2022/11/07 02:27:50;;;;;;;;;;;;;;;11.25;74.61;98245.75;7389212;19;19947;-76
2022/11/07 02:30:18;;;;;;;;;;;;;;;11.24;74.66;98237.94;7387803;19;19944;-76
2022/11/07 02:32:45;;;;;;;;;;;;;;;11.26;74.25;98233.31;7386575;19;19947;-76
2022/11/07 02:35:30;;;;;;;;;;;;;;;11.21;74.42;98229.34;7385827;19;19947;-76
2022/11/07 02:37:57;;;;;;;;;;;;;;;11.13;74.72;98231.16;7388538;19;19922;-76
2022/11/07 02:40:24;;;;;;;;;;;;;;;11.08;74.60;98228.16;7386101;19;20341;-76
2022/11/07 02:42:50;;;;;;;;;;;;;;;11.06;74.84;98235.44;7385285;19;19914;-77
2022/11/07 02:45:18;;;;;;;;;;;;;;;11.07;75.25;98223.88;7386410;19;19927;-76
2022/11/07 02:47:44;;;;;;;;;;;;;;;11.08;75.24;98228.97;7386756;19;20445;-76
2022/11/07 02:50:13;;;;;;;;;;;;;;;11.15;75.38;98226.53;7388670;19;20637;-77
2022/11/07 02:52:40;;;;;;;;;;;;;;;11.25;75.45;98226.38;7386797;19;19961;-76
2022/11/07 02:55:07;;;;;;;;;;;;;;;11.26;75.42;98220.91;7387041;19;19947;-77
2022/11/07 02:57:33;;;;;;;;;;;;;;;11.37;75.07;98220.59;7387873;19;19919;-76
2022/11/07 03:00:00;;;;;;;;;;;;;;;11.46;74.81;98221.44;7387646;19;19948;-77
2022/11/07 03:02:27;;;;;;;;;;;;;;;11.41;74.85;98213.16;7384811;19;19923;-76
2022/11/07 03:04:53;;;;;;;;;;;;;;;11.49;74.58;98220.28;7389176;19;19939;-77
2022/11/07 03:07:20;;;;;;;;;;;;;;;11.52;74.46;98215.47;7388344;19;20413;-77
2022/11/07 03:09:47;;;;;;;;;;;;;;;11.51;74.31;98218.28;7387486;19;19923;-77
2022/11/07 03:12:13;;;;;;;;;;;;;;;11.53;74.16;98210.97;7384673;19;20512;-77
2022/11/07 03:14:40;;;;;;;;;;;;;;;11.54;74.27;98224.06;7386799;19;20247;-76
2022/11/07 03:17:07;;;;;;;;;;;;;;;11.57;74.46;98220.28;7386257;19;19921;-76
2022/11/07 03:19:33;;;;;;;;;;;;;;;11.63;73.89;98223.06;7387065;19;19975;-76
2022/11/07 03:22:00;;;;;;;;;;;;;;;11.69;73.77;98224.25;7386691;19;19941;-77
2022/11/07 03:24:26;;;;;;;;;;;;;;;11.72;73.72;98221.25;7385096;19;20320;-77
2022/11/07 03:26:53;;;;;;;;;;;;;;;11.68;74.30;98227.88;7386797;19;19919;-77
2022/11/07 03:29:20;;;;;;;;;;;;;;;11.68;73.94;98216.47;7392198;19;19911;-77
2022/11/07 03:31:47;;;;;;;;;;;;;;;11.67;74.15;98233.38;7393232;19;19939;-77
2022/11/07 03:34:14;;;;;;;;;;;;;;;11.81;73.44;98225.56;7395196;19;19959;-76
2022/11/07 03:36:40;;;;;;;;;;;;;;;11.86;73.79;98228.56;7396188;19;19918;-77
2022/11/07 03:39:07;;;;;;;;;;;;;;;11.71;73.70;98232.84;7394383;19;20364;-76
2022/11/07 03:41:34;;;;;;;;;;;;;;;11.77;73.56;98234.84;7394926;19;19927;-76
2022/11/07 03:44:00;;;;;;;;;;;;;;;11.82;73.15;98235.19;7395748;19;19923;-77
2022/11/07 03:46:27;;;;;;;;;;;;;;;11.92;72.97;98239.50;7395935;19;19934;-77
2022/11/07 03:48:53;;;;;;;;;;;;;;;11.97;72.73;98235.34;7393264;19;19923;-76
2022/11/07 03:51:20;;;;;;;;;;;;;;;11.97;72.97;98245.13;7393333;19;20337;-77
2022/11/07 03:53:47;;;;;;;;;;;;;;;11.96;72.60;98238.19;7390244;19;19926;-77
2022/11/07 03:56:14;;;;;;;;;;;;;;;11.99;72.75;98251.91;7389986;19;19982;-76
2022/11/07 03:58:40;;;;;;;;;;;;;;;11.93;72.64;98242.00;7390775;19;19922;-77
2022/11/07 04:01:09;;;;;;;;;;;;;;;11.98;72.83;98237.00;7389351;19;19947;-76
2022/11/07 04:03:35;;;;;;;;;;;;;;;12.01;72.67;98243.81;7390697;19;19915;-76
2022/11/07 04:06:02;;;;;;;;;;;;;;;12.00;72.61;98242.13;7388016;19;20350;-76
2022/11/07 04:08:28;;;;;;;;;;;;;;;11.98;72.73;98244.97;7390143;19;19965;-76
2022/11/07 04:10:55;;;;;;;;;;;;;;;12.02;72.39;98243.63;7391256;19;19915;-76
2022/11/07 04:18:53;;;;;;;;;;;;;;;12.08;72.01;98263.31;7389524;19;19939;-76
2022/11/07 04:21:19;;;;;;;;;;;;;;;11.97;72.18;98258.38;7384061;19;19939;-76
2022/11/07 04:23:46;;;;;;;;;;;;;;;12.06;72.33;98265.34;7389804;19;19918;-77
2022/11/07 04:28:58;;;;;;;;;;;;;;;12.08;72.30;98258.03;7390376;19;19947;-76
2022/11/07 04:31:24;;;;;;;;;;;;;;;12.17;71.84;98266.81;7385589;19;19914;-76
2022/11/07 04:33:51;;;;;;;;;;;;;;;12.19;71.69;98268.31;7389532;19;19923;-76
2022/11/07 04:36:18;;;;;;;;;;;;;;;12.13;72.14;98261.00;7386675;19;19919;-76
2022/11/07 04:38:44;;;;;;;;;;;;;;;12.00;72.31;98274.78;7389788;19;19956;-76
2022/11/07 04:41:18;;;;;;;;;;;;;;;11.97;72.53;98275.09;7386377;19;19923;-76
2022/11/07 04:43:45;;;;;;;;;;;;;;;11.96;73.01;98275.28;7386758;19;20342;-77
2022/11/07 04:46:11;;;;;;;;;;;;;;;11.96;73.00;98275.28;7388513;19;19914;-76
2022/11/07 04:48:38;;;;;;;;;;;;;;;12.01;72.85;98278.28;7389353;19;20272;-76
2022/11/07 04:51:04;;;;;;;;;;;;;;;12.06;72.93;98290.03;7389256;19;19922;-77
2022/11/07 04:53:31;;;;;;;;;;;;;;;11.97;72.93;98283.06;7388026;19;19907;-76
2022/11/07 04:55:58;;;;;;;;;;;;;;;11.97;72.93;98287.53;7389211;19;19923;-76
2022/11/07 04:58:24;;;;;;;;;;;;;;;11.95;73.03;98285.03;7386986;19;19922;-76
2022/11/07 05:00:51;;;;;;;;;;;;;;;11.92;73.51;98296.00;7386320;19;19922;-77
2022/11/07 05:03:17;;;;;;;;;;;;;;;11.91;73.26;98290.88;7389826;19;20634;-76
2022/11/07 05:05:44;;;;;;;;;;;;;;;11.97;73.01;98285.72;7389943;19;20358;-77
2022/11/07 05:08:11;;;;;;;;;;;;;;;11.94;73.11;98290.53;7389254;19;20005;-77
2022/11/07 05:10:38;;;;;;;;;;;;;;;11.93;72.96;98287.06;7385552;19;19915;-76
2022/11/07 05:13:04;;;;;;;;;;;;;;;11.87;73.14;98285.06;7385412;19;20358;-76
2022/11/07 05:15:31;;;;;;;;;;;;;;;11.83;73.30;98292.47;7385643;19;19944;-76
2022/11/07 05:17:57;;;;;;;;;;;;;;;11.82;73.58;98295.28;7386864;19;19937;-76
2022/11/07 05:20:26;;;;;;;;;;;;;;;11.82;73.42;98288.19;7388872;19;19922;-76
2022/11/07 05:23:11;;;;;;;;;;;;;;;11.82;73.25;98287.34;7381119;19;19919;-77
2022/11/07 05:25:44;;;;;;;;;;;;;;;11.74;73.14;98296.16;7383817;19;19922;-77
2022/11/07 05:28:11;;;;;;;;;;;;;;;11.69;73.12;98297.59;7386698;19;20588;-77
2022/11/07 05:30:39;;;;;;;;;;;;;;;11.62;73.35;98300.91;7390113;19;19929;-76
2022/11/07 05:33:06;;;;;;;;;;;;;;;11.68;73.14;98303.91;7381240;19;19944;-76
2022/11/07 05:35:34;;;;;;;;;;;;;;;11.64;73.21;98306.06;7389267;19;19922;-76
2022/11/07 05:38:00;;;;;;;;;;;;;;;11.62;73.55;98300.09;7374927;19;22301;-76
2022/11/07 05:40:27;;;;;;;;;;;;;;;11.56;73.52;98292.81;7376791;19;20453;-77
2022/11/07 05:43:00;;;;;;;;;;;;;;;11.50;73.64;98296.09;7381836;19;20290;-76
2022/11/07 05:45:27;;;;;;;;;;;;;;;11.37;73.82;98292.13;7382498;19;19914;-77
2022/11/07 05:47:57;;;;;;;;;;;;;;;11.35;74.06;98293.28;7386907;19;20283;-76
2022/11/07 05:50:24;;;;;;;;;;;;;;;11.35;74.14;98298.56;7384045;19;19955;-75
2022/11/07 05:52:52;;;;;;;;;;;;;;;11.29;74.62;98307.16;7384338;19;19914;-76
2022/11/07 05:55:18;;;;;;;;;;;;;;;11.25;74.38;98304.00;7383694;19;20267;-76
2022/11/07 05:57:45;;;;;;;;;;;;;;;11.15;74.52;98303.31;7387223;19;19931;-76
2022/11/07 06:00:12;;;;;;;;;;;;;;;11.03;75.11;98313.34;7383760;19;19963;-76
2022/11/07 06:02:38;;;;;;;;;;;;;;;10.87;75.15;98308.81;7380751;19;19927;-76
2022/11/07 06:05:05;;;;;;;;;;;;;;;10.74;75.54;98311.09;7385703;19;20454;-77
2022/11/07 06:07:35;;;;;;;;;;;;;;;10.71;75.62;98314.06;7384016;19;19923;-76
2022/11/07 06:10:03;;;;;;;;;;;;;;;10.64;75.90;98316.50;7386260;19;20618;-77
2022/11/07 06:12:29;;;;;;;;;;;;;;;10.61;75.94;98316.84;7384428;19;19918;-76
2022/11/07 06:14:56;;;;;;;;;;;;;;;10.63;76.17;98319.31;7381447;19;19915;-76
2022/11/07 06:17:23;;;;;;;;;;;;;;;10.59;76.33;98318.78;7381022;19;19927;-77
2022/11/07 06:19:49;;;;;;;;;;;;;;;10.58;76.58;98311.81;7383911;19;19933;-77
2022/11/07 06:22:16;;;;;;;;;;;;;;;10.57;76.46;98312.00;7375244;19;19923;-76
2022/11/07 06:24:42;;;;;;;;;;;;;;;10.71;76.00;98317.50;7381475;19;21733;-76
2022/11/07 06:27:09;;;;;;;;;;;;;;;10.64;76.13;98320.97;7379353;19;19911;-76
2022/11/07 06:29:35;;;;;;;;;;;;;;;10.57;76.46;98314.66;7385227;19;19923;-75
2022/11/07 06:32:02;;;;;;;;;;;;;;;10.58;76.52;98322.41;7380101;19;19914;-76
2022/11/07 06:34:28;;;;;;;;;;;;;;;10.58;76.46;98324.22;7378121;19;19953;-76
2022/11/07 06:36:55;;;;;;;;;;;;;;;10.70;76.50;98322.97;7384357;19;19943;-77
2022/11/07 06:39:28;;;;;;;;;;;;;;;10.67;76.67;98315.38;7385881;19;19922;-77
2022/11/07 06:41:55;;;;;;;;;;;;;;;10.80;76.78;98330.81;7384294;19;20272;-76
2022/11/07 06:44:22;;;;;;;;;;;;;;;10.81;76.86;98325.34;7382865;19;19930;-77
2022/11/07 06:46:48;;;;;;;;;;;;;;;10.84;76.95;98332.97;7387912;19;19923;-78
2022/11/07 06:49:15;;;;;;;;;;;;;;;10.97;76.88;98328.06;7383182;19;19918;-78
2022/11/07 06:51:42;;;;;;;;;;;;;;;11.10;76.78;98327.63;7381150;19;19923;-78
2022/11/07 06:54:13;;;;;;;;;;;;;;;11.13;76.71;98329.13;7385831;19;20313;-77
2022/11/07 06:56:40;;;;;;;;;;;;;;;11.20;76.87;98328.31;7383747;19;19966;-77
2022/11/07 06:59:06;;;;;;;;;;;;;;;11.33;76.60;98333.16;7385806;19;19923;-77
2022/11/07 07:01:33;;;;;;;;;;;;;;;11.39;76.43;98339.63;7387644;19;19921;-77
2022/11/07 07:04:00;;;;;;;;;;;;;;;11.56;75.96;98335.22;7390835;19;19915;-78
2022/11/07 07:06:26;;;;;;;;;;;;;;;11.77;74.80;98334.72;7391761;19;19926;-77
2022/11/07 07:08:53;;;;;;;;;;;;;;;11.91;74.35;98342.06;7392304;19;20734;-77
2022/11/07 07:11:20;;;;;;;;;;;;;;;11.92;74.23;98342.88;7393830;19;19919;-77
2022/11/07 07:13:46;;;;;;;;;;;;;;;11.98;74.38;98345.72;7391892;19;19952;-77
2022/11/07 07:16:13;;;;;;;;;;;;;;;11.96;74.55;98352.19;7393151;19;19923;-77
2022/11/07 07:18:39;;;;;;;;;;;;;;;12.09;74.03;98349.84;7392346;19;19918;-77
2022/11/07 07:21:09;;;;;;;;;;;;;;;12.02;73.90;98351.50;7392330;19;19952;-76
2022/11/07 07:23:37;;;;;;;;;;;;;;;12.11;73.77;98363.75;7392457;19;19939;-77
2022/11/07 07:26:05;;;;;;;;;;;;;;;12.18;73.82;98359.47;7391813;19;19930;-77
2022/11/07 07:28:31;;;;;;;;;;;;;;;12.22;73.57;98362.63;7391691;19;19930;-78
2022/11/07 07:31:18;;;;;;;;;;;;;;;12.30;73.46;98362.63;7395265;19;19911;-76
2022/11/07 07:33:45;;;;;;;;;;;;;;;12.36;73.14;98363.78;7391254;19;22800;-76
2022/11/07 07:36:12;;;;;;;;;;;;;;;12.44;73.20;98367.22;7392107;19;19948;-76
2022/11/07 07:38:46;;;;;;;;;;;;;;;12.44;73.41;98361.09;7392752;19;20252;-77
2022/11/07 07:41:12;;;;;;;;;;;;;;;12.49;73.58;98364.91;7388907;19;19923;-76
2022/11/07 07:43:39;;;;;;;;;;;;;;;12.59;73.03;98361.25;7388354;19;20394;-76
2022/11/07 07:46:06;;;;;;;;;;;;;;;12.60;73.21;98357.59;7388084;19;19926;-76
2022/11/07 07:48:33;;;;;;;;;;;;;;;12.61;72.68;98356.59;7390797;19;19922;-76
2022/11/07 07:51:00;;;;;;;;;;;;;;;12.68;73.05;98360.22;7390849;19;19927;-76
2022/11/07 07:53:26;;;;;;;;;;;;;;;12.77;73.33;98361.88;7387269;19;19939;-77
2022/11/07 07:55:59;;;;;;;;;;;;;;;12.84;73.09;98370.78;7390903;19;20359;-76
2022/11/07 07:58:25;;;;;;;;;;;;;;;12.95;72.47;98361.63;7386173;19;20363;-76
2022/11/07 08:00:58;;;;;;;;;;;;;;;13.06;72.37;98363.94;7390877;19;19940;-76
2022/11/07 08:03:25;;;;;;;;;;;;;;;13.14;72.29;98366.56;7390919;19;19923;-76
2022/11/07 08:06:00;;;;;;;;;;;;;;;13.17;71.86;98360.09;7391314;19;20317;-75
2022/11/07 08:08:27;;;;;;;;;;;;;;;13.24;71.42;98368.16;7393813;19;20025;-76
2022/11/07 08:11:01;;;;;;;;;;;;;;;13.25;71.16;98365.34;7392935;19;19982;-76
2022/11/07 08:13:29;;;;;;;;;;;;;;;13.34;70.67;98361.69;7385335;19;19918;-76
2022/11/07 08:15:55;;;;;;;;;;;;;;;13.46;70.95;98364.78;7388261;19;19923;-77
2022/11/07 08:18:22;;;;;;;;;;;;;;;13.49;70.68;98367.09;7388195;19;19930;-76
2022/11/07 08:20:50;;;;;;;;;;;;;;;13.43;70.07;98365.13;7382371;19;19922;-76
2022/11/07 08:23:16;;;;;;;;;;;;;;;13.56;70.21;98372.53;7385898;19;19915;-76
2022/11/07 08:25:51;;;;;;;;;;;;;;;13.64;70.08;98382.28;7387350;19;19961;-77
2022/11/07 08:28:18;;;;;;;;;;;;;;;13.65;69.94;98375.97;7388643;19;20427;-76
2022/11/07 08:30:44;;;;;;;;;;;;;;;13.78;69.54;98382.38;7390472;19;19917;-75
2022/11/07 08:33:11;;;;;;;;;;;;;;;13.66;69.97;98380.28;7388066;19;20394;-76
2022/11/07 08:35:39;;;;;;;;;;;;;;;13.67;69.78;98373.97;7387119;19;19918;-76
2022/11/07 08:38:08;;;;;;;;;;;;;;;13.56;69.99;98376.03;7389628;19;19939;-76
2022/11/07 08:40:35;;;;;;;;;;;;;;;13.45;69.79;98375.56;7392347;19;20342;-75
2022/11/07 08:43:01;;;;;;;;;;;;;;;13.45;69.76;98373.75;7387242;19;19926;-76
2022/11/07 08:45:28;;;;;;;;;;;;;;;13.42;70.18;98378.59;7390922;19;19919;-76
2022/11/07 08:47:55;;;;;;;;;;;;;;;13.67;70.03;98379.31;7387536;19;19964;-75
2022/11/07 08:50:21;;;;;;;;;;;;;;;13.76;69.44;98380.91;7390613;19;19918;-76
2022/11/07 08:52:48;;;;;;;;;;;;;;;13.78;69.39;98384.22;7388172;19;19923;-76
2022/11/07 08:55:14;;;;;;;;;;;;;;;13.78;69.65;98378.91;7389783;19;19934;-76
2022/11/07 08:57:41;;;;;;;;;;;;;;;13.86;69.54;98380.66;7392222;19;20346;-76
2022/11/07 09:00:08;;;;;;;;;;;;;;;13.91;69.18;98373.81;7388450;19;19932;-76
2022/11/07 09:02:34;;;;;;;;;;;;;;;13.87;69.25;98384.97;7387787;19;19922;-76
2022/11/07 09:05:21;;;;;;;;;;;;;;;14.03;69.15;98377.72;7386069;19;20350;-76
2022/11/07 09:07:48;;;;;;;;;;;;;;;14.04;68.89;98382.03;7389645;19;19919;-76
2022/11/07 09:10:14;;;;;;;;;;;;;;;14.10;68.86;98379.66;7386801;19;20311;-77
2022/11/07 09:12:44;;;;;;;;;;;;;;;13.98;68.93;98380.09;7388012;19;20090;-76
2022/11/07 09:15:11;;;;;;;;;;;;;;;14.00;68.47;98385.22;7388809;19;19960;-76
2022/11/07 09:17:38;;;;;;;;;;;;;;;13.97;68.91;98388.22;7390923;19;19919;-76
2022/11/07 09:20:05;;;;;;;;;;;;;;;14.05;68.16;98388.19;7385459;19;19931;-76
2022/11/07 09:22:31;;;;;;;;;;;;;;;14.17;68.07;98394.75;7385897;19;19922;-77
2022/11/07 09:24:58;;;;;;;;;;;;;;;14.20;68.09;98396.22;7390370;19;19950;-76
2022/11/07 09:27:24;;;;;;;;;;;;;;;14.18;68.08;98404.38;7386849;19;20299;-76
2022/11/07 09:29:51;;;;;;;;;;;;;;;14.09;67.94;98408.09;7385052;19;19927;-76
2022/11/07 09:32:17;;;;;;;;;;;;;;;14.27;67.34;98399.84;7383501;19;20544;-76
2022/11/07 09:35:04;;;;;;;;;;;;;;;14.32;67.10;98405.41;7388613;19;19926;-77
2022/11/07 09:37:31;;;;;;;;;;;;;;;14.47;66.40;98410.78;7388765;19;19948;-76
2022/11/07 09:39:57;;;;;;;;;;;;;;;14.57;67.17;98402.59;7389230;19;19923;-76
2022/11/07 09:42:46;;;;;;;;;;;;;;;14.50;66.75;98415.75;7387030;19;19939;-76
2022/11/07 09:45:12;;;;;;;;;;;;;;;14.49;66.86;98412.28;7381751;19;19919;-76
2022/11/07 09:47:44;;;;;;;;;;;;;;;14.59;66.21;98413.91;7386211;19;19930;-76
2022/11/07 09:50:18;;;;;;;;;;;;;;;14.53;66.00;98411.94;7383902;19;19922;-76
2022/11/07 09:52:44;;;;;;;;;;;;;;;14.66;65.80;98414.81;7383573;19;19943;-77
2022/11/07 09:55:28;;;;;;;;;;;;;;;14.61;65.61;98406.53;7383879;19;20387;-76
2022/11/07 09:57:56;;;;;;;;;;;;;;;14.62;65.72;98406.38;7385942;19;19927;-77
2022/11/07 10:00:22;;;;;;;;;;;;;;;14.74;65.77;98405.91;7382325;19;19923;-77
2022/11/07 10:02:51;;;;;;;;;;;;;;;14.77;65.52;98408.22;7384078;19;19914;-76
2022/11/07 10:05:23;;;;;;;;;;;;;;;14.70;65.61;98400.97;7387016;19;19927;-76
2022/11/07 10:08:06;;;;;;;;;;;;;;;14.79;65.81;98409.69;7387174;19;19915;-76
2022/11/07 10:10:40;;;;;;;;;;;;;;;14.71;66.17;98401.78;7381488;19;19939;-76
2022/11/07 10:13:15;;;;;;;;;;;;;;;14.90;65.92;98406.59;7381428;19;19925;-77
2022/11/07 10:15:49;;;;;;;;;;;;;;;14.79;64.61;98401.69;7382714;19;19922;-76
2022/11/07 10:18:33;;;;;;;;;;;;;;;14.80;64.98;98403.38;7387668;19;19938;-76
2022/11/07 10:21:38;;;;;;;;;;;;;;;14.99;65.15;98406.50;7384188;19;19919;-77
2022/11/07 10:24:08;;;;;;;;;;;;;;;14.90;64.88;98403.94;7381648;19;19906;-76
2022/11/07 10:26:35;;;;;;;;;;;;;;;15.00;65.24;98402.81;7379340;19;19919;-76
2022/11/07 10:29:12;;;;;;;;;;;;;;;14.92;63.96;98399.22;7381167;19;19939;-76
2022/11/07 10:31:40;;;;;;;;;;;;;;;14.97;64.95;98403.19;7386291;19;19911;-76
2022/11/07 10:34:26;;;;;;;;;;;;;;;15.16;64.40;98405.31;7383576;19;19910;-76
2022/11/07 10:36:52;;;;;;;;;;;;;;;15.35;64.70;98399.41;7387637;19;19923;-77
2022/11/07 10:39:19;;;;;;;;;;;;;;;15.17;64.03;98393.66;7392054;19;19935;-76
2022/11/07 10:41:51;;;;;;;;;;;;;;;15.11;64.30;98391.69;7392767;19;19940;-77
2022/11/07 10:44:22;;;;;;;;;;;;;;;15.23;64.29;98392.91;7388092;19;20370;-76
2022/11/07 10:46:49;;;;;;;;;;;;;;;15.13;63.53;98385.19;7391443;19;20041;-76
2022/11/07 10:49:20;;;;;;;;;;;;;;;15.08;63.43;98376.09;7391847;19;19923;-75
2022/11/07 10:51:46;;;;;;;;;;;;;;;15.22;63.82;98377.94;7391262;19;19940;-76
2022/11/07 10:54:32;;;;;;;;;;;;;;;15.24;64.63;98380.41;7390487;19;19915;-77
2022/11/07 10:57:01;;;;;;;;;;;;;;;15.31;65.00;98365.31;7391828;19;19951;-77
2022/11/07 10:59:29;;;;;;;;;;;;;;;15.44;64.75;98370.00;7390864;19;19918;-76
2022/11/07 11:02:02;;;;;;;;;;;;;;;15.26;63.04;98370.38;7388444;19;19918;-76
2022/11/07 11:04:30;;;;;;;;;;;;;;;15.20;63.20;98368.47;7392191;19;19921;-76
2022/11/07 11:07:00;;;;;;;;;;;;;;;15.30;63.22;98363.69;7389470;19;20342;-76
2022/11/07 11:09:27;;;;;;;;;;;;;;;15.40;64.04;98364.19;7392589;19;19926;-76
2022/11/07 11:11:53;;;;;;;;;;;;;;;15.33;63.74;98365.97;7389628;19;19919;-76
2022/11/07 11:14:20;;;;;;;;;;;;;;;15.39;64.11;98367.06;7390798;19;19922;-76
2022/11/07 11:16:48;;;;;;;;;;;;;;;15.41;64.15;98373.03;7392919;19;19926;-76
2022/11/07 11:19:17;;;;;;;;;;;;;;;15.69;63.61;98366.00;7391796;19;19923;-77
2022/11/07 11:21:44;;;;;;;;;;;;;;;15.66;63.63;98370.84;7390445;19;19931;-77
2022/11/07 11:24:12;;;;;;;;;;;;;;;15.70;62.43;98369.50;7389433;19;19923;-76
2022/11/07 11:26:39;;;;;;;;;;;;;;;15.84;62.78;98363.28;7391288;19;19918;-76
2022/11/07 11:29:07;;;;;;;;;;;;;;;15.98;61.77;98374.91;7391082;19;20310;-76
2022/11/07 11:31:35;;;;;;;;;;;;;;;15.98;63.18;98374.91;7389383;19;19931;-76
2022/11/07 11:34:03;;;;;;;;;;;;;;;16.04;62.26;98376.84;7388423;19;19947;-77
2022/11/07 11:36:33;;;;;;;;;;;;;;;16.14;61.48;98376.50;7387997;19;19990;-77
2022/11/07 11:38:59;;;;;;;;;;;;;;;15.97;63.16;98378.59;7392295;19;19918;-77
2022/11/07 11:41:32;;;;;;;;;;;;;;;16.11;61.96;98371.53;7386690;19;20341;-76
2022/11/07 11:44:02;;;;;;;;;;;;;;;16.22;62.70;98368.38;7393389;19;19926;-77
2022/11/07 11:46:32;;;;;;;;;;;;;;;16.28;62.55;98367.59;7392077;19;20243;-76
2022/11/07 11:49:00;;;;;;;;;;;;;;;16.29;61.70;98363.91;7388921;19;19919;-76
2022/11/07 11:51:36;;;;;;;;;;;;;;;16.32;61.86;98362.69;7385185;19;19923;-76
2022/11/07 11:54:04;;;;;;;;;;;;;;;16.22;61.91;98361.19;7387422;19;20573;-77
2022/11/07 11:56:51;;;;;;;;;;;;;;;16.08;62.10;98369.25;7386978;19;19914;-77
2022/11/07 11:59:17;;;;;;;;;;;;;;;16.04;61.89;98360.81;7391474;19;19927;-76
2022/11/07 12:01:44;;;;;;;;;;;;;;;16.02;64.14;98362.84;7389546;19;20339;-75
2022/11/07 12:04:10;;;;;;;;;;;;;;;16.11;61.26;98367.03;7392374;19;19931;-76
2022/11/07 12:06:38;;;;;;;;;;;;;;;16.17;62.33;98363.59;7392626;19;19948;-76
2022/11/07 12:09:26;;;;;;;;;;;;;;;16.08;62.69;98356.72;7392844;19;19919;-77
2022/11/07 12:11:56;;;;;;;;;;;;;;;15.90;61.70;98353.69;7387514;19;19922;-76
2022/11/07 12:14:35;;;;;;;;;;;;;;;15.96;61.26;98351.09;7385612;19;20863;-75
2022/11/07 12:17:28;;;;;;;;;;;;;;;16.19;61.54;98358.91;7392152;19;20350;-76
2022/11/07 12:20:14;;;;;;;;;;;;;;;16.23;63.24;98354.81;7388513;19;20320;-77
2022/11/07 12:22:43;;;;;;;;;;;;;;;16.11;61.17;98350.19;7387852;19;19926;-76
2022/11/07 12:25:30;;;;;;;;;;;;;;;15.92;59.46;98341.81;7389412;19;19915;-75
2022/11/07 12:28:03;;;;;;;;;;;;;;;16.09;60.09;98339.72;7388319;19;19942;-75
2022/11/07 12:30:34;;;;;;;;;;;;;;;16.00;60.02;98341.69;7387326;19;19952;-76
2022/11/07 12:33:11;;;;;;;;;;;;;;;16.13;59.18;98338.31;7384217;19;19922;-76
2022/11/07 12:35:56;;;;;;;;;;;;;;;16.23;60.27;98328.13;7389623;19;20600;-76
2022/11/07 12:38:40;;;;;;;;;;;;;;;16.21;59.08;98326.66;7389551;19;19911;-76
2022/11/07 12:41:25;;;;;;;;;;;;;;;16.34;59.88;98325.94;7383983;19;19923;-76
2022/11/07 12:44:00;;;;;;;;;;;;;;;16.27;59.79;98331.22;7386368;19;20313;-77
2022/11/07 12:46:39;;;;;;;;;;;;;;;16.28;59.49;98334.75;7386661;19;20365;-75
2022/11/07 12:49:12;;;;;;;;;;;;;;;16.10;59.59;98346.69;7386977;19;19911;-76
2022/11/07 12:51:57;;;;;;;;;;;;;;;16.29;59.66;98336.38;7387575;19;19944;-77
2022/11/07 12:54:29;;;;;;;;;;;;;;;16.44;59.91;98334.47;7388312;19;19926;-76
2022/11/07 12:56:56;;;;;;;;;;;;;;;16.48;59.06;98341.03;7390282;19;19927;-76
2022/11/07 12:59:25;;;;;;;;;;;;;;;16.49;59.93;98342.72;7387940;19;19927;-77
2022/11/07 13:01:51;;;;;;;;;;;;;;;16.45;59.40;98330.75;7383389;19;19915;-76
2022/11/07 13:04:19;;;;;;;;;;;;;;;16.48;59.16;98330.34;7385892;19;19923;-77
2022/11/07 13:06:48;;;;;;;;;;;;;;;16.39;58.16;98326.19;7389584;19;19940;-76
2022/11/07 13:09:16;;;;;;;;;;;;;;;16.30;59.71;98325.53;7388918;19;19923;-76